createdAt,value
2023-04-23T00:00:48.400Z,17.95
2023-04-23T00:03:18.097Z,18.17
2023-04-23T00:05:46.190Z,15.90
2023-04-23T00:08:16.831Z,17.38
2023-04-23T00:10:43.785Z,17.30
2023-04-23T00:13:11.451Z,17.95
2023-04-23T00:15:38.933Z,15.95
2023-04-23T00:18:10.725Z,17.55
2023-04-23T00:20:37.471Z,15.95
2023-04-23T00:23:04.593Z,17.00
2023-04-23T00:25:34.136Z,16.42
2023-04-23T00:28:02.294Z,17.20
2023-04-23T00:30:29.520Z,17.20
2023-04-23T00:32:56.830Z,17.42
2023-04-23T00:35:24.518Z,19.38
2023-04-23T00:37:51.321Z,18.17
2023-04-23T00:40:18.731Z,17.30
2023-04-23T00:42:45.786Z,18.63
2023-04-23T00:45:15.611Z,18.70
2023-04-23T00:47:43.426Z,18.92
2023-04-23T00:50:13.075Z,19.95
2023-04-23T00:52:41.211Z,19.00
2023-04-23T00:55:09.098Z,18.25
2023-04-23T00:57:39.363Z,18.77
2023-04-23T01:00:09.813Z,17.90
2023-04-23T01:02:38.536Z,19.80
2023-04-23T01:05:07.906Z,20.60
2023-04-23T01:07:35.825Z,19.17
2023-04-23T01:10:04.257Z,17.75
2023-04-23T01:12:37.089Z,18.88
2023-04-23T01:15:04.420Z,18.20
2023-04-23T01:17:32.551Z,19.38
2023-04-23T01:19:59.260Z,18.83
2023-04-23T01:22:30.354Z,17.70
2023-04-23T01:25:02.050Z,18.30
2023-04-23T01:27:28.892Z,18.60
2023-04-23T01:29:56.800Z,20.83
2023-04-23T01:32:25.462Z,17.65
2023-04-23T01:34:54.492Z,16.35
2023-04-23T01:37:24.220Z,18.42
2023-04-23T01:39:52.357Z,16.95
2023-04-23T01:42:20.871Z,18.67
2023-04-23T01:44:48.945Z,18.98
2023-04-23T01:47:17.590Z,17.73
2023-04-23T01:49:44.285Z,17.65
2023-04-23T01:52:12.481Z,18.77
2023-04-23T01:54:39.356Z,17.40
2023-04-23T01:57:07.531Z,15.65
2023-04-23T01:59:37.697Z,15.48
2023-04-23T02:02:04.881Z,15.65
2023-04-23T02:04:34.031Z,15.20
2023-04-23T02:07:02.449Z,15.90
2023-04-23T02:09:29.771Z,16.92
2023-04-23T02:11:58.031Z,15.15
2023-04-23T02:14:26.619Z,16.55
2023-04-23T02:16:53.452Z,15.25
2023-04-23T02:19:20.793Z,18.15
2023-04-23T02:21:47.933Z,16.05
2023-04-23T02:24:14.644Z,15.35
2023-04-23T02:26:41.746Z,15.38
2023-04-23T02:29:10.927Z,17.67
2023-04-23T02:31:38.176Z,16.75
2023-04-23T02:34:04.948Z,16.60
2023-04-23T02:36:32.880Z,15.18
2023-04-23T02:38:59.554Z,16.55
2023-04-23T02:41:26.845Z,15.45
2023-04-23T02:43:53.543Z,13.90
2023-04-23T02:46:21.987Z,14.70
2023-04-23T02:48:48.798Z,16.95
2023-04-23T02:51:16.444Z,16.35
2023-04-23T02:53:43.463Z,14.80
2023-04-23T02:56:10.245Z,15.40
2023-04-23T02:58:37.381Z,14.02
2023-04-23T03:01:07.138Z,14.82
2023-04-23T03:03:34.701Z,15.27
2023-04-23T03:06:02.663Z,15.05
2023-04-23T03:08:29.431Z,14.95
2023-04-23T03:10:56.373Z,15.18
2023-04-23T03:13:23.570Z,15.23
2023-04-23T03:15:53.355Z,15.27
2023-04-23T03:18:21.053Z,15.95
2023-04-23T03:20:48.160Z,15.40
2023-04-23T03:23:14.857Z,14.25
2023-04-23T03:25:42.001Z,13.98
2023-04-23T03:28:08.755Z,14.93
2023-04-23T03:30:35.981Z,16.02
2023-04-23T03:33:03.151Z,16.05
2023-04-23T03:35:30.322Z,16.60
2023-04-23T03:37:57.043Z,16.55
2023-04-23T03:40:23.826Z,16.35
2023-04-23T03:42:50.613Z,16.25
2023-04-23T03:45:17.509Z,16.13
2023-04-23T03:47:45.014Z,16.38
2023-04-23T03:50:14.836Z,15.98
2023-04-23T03:52:42.025Z,16.42
2023-04-23T03:55:09.391Z,16.13
2023-04-23T03:57:37.387Z,16.52
2023-04-23T04:00:16.500Z,15.48
2023-04-23T04:02:43.878Z,15.50
2023-04-23T04:05:13.912Z,16.35
2023-04-23T04:07:41.233Z,16.88
2023-04-23T04:10:08.224Z,15.60
2023-04-23T04:12:35.446Z,14.73
2023-04-23T04:15:03.932Z,15.30
2023-04-23T04:17:31.065Z,13.82
2023-04-23T04:19:57.792Z,16.80
2023-04-23T04:22:24.624Z,15.57
2023-04-23T04:24:52.722Z,14.20
2023-04-23T04:27:19.932Z,14.70
2023-04-23T04:29:47.033Z,14.80
2023-04-23T04:32:13.966Z,14.60
2023-04-23T04:34:41.102Z,12.98
2023-04-23T04:37:08.392Z,12.98
2023-04-23T04:39:35.262Z,12.45
2023-04-23T04:42:02.951Z,11.93
2023-04-23T04:44:30.691Z,12.98
2023-04-23T04:46:57.634Z,13.93
2023-04-23T04:49:24.719Z,12.57
2023-04-23T04:51:51.818Z,14.07
2023-04-23T04:54:18.511Z,12.43
2023-04-23T04:56:45.847Z,13.30
2023-04-23T04:59:12.609Z,13.98
2023-04-23T05:01:39.745Z,11.65
2023-04-23T05:04:06.631Z,11.70
2023-04-23T05:06:33.941Z,12.80
2023-04-23T05:09:00.743Z,11.23
2023-04-23T05:11:27.579Z,11.27
2023-04-23T05:13:54.366Z,10.65
2023-04-23T05:16:22.471Z,11.48
2023-04-23T05:18:49.592Z,10.02
2023-04-23T05:21:16.645Z,12.18
2023-04-23T05:23:43.753Z,11.27
2023-04-23T05:26:11.660Z,10.95
2023-04-23T05:28:38.379Z,11.68
2023-04-23T05:31:06.059Z,11.65
2023-04-23T05:33:39.208Z,11.32
2023-04-23T05:36:09.797Z,10.77
2023-04-23T05:38:37.022Z,11.85
2023-04-23T05:41:05.129Z,13.20
2023-04-23T05:43:31.877Z,13.35
2023-04-23T05:46:04.333Z,16.23
2023-04-23T05:48:32.045Z,14.25
2023-04-23T05:50:59.173Z,13.60
2023-04-23T05:53:27.240Z,13.90
2023-04-23T05:55:53.947Z,12.63
2023-04-23T05:58:20.779Z,12.85
2023-04-23T06:00:49.259Z,13.05
2023-04-23T06:03:19.520Z,10.03
2023-04-23T06:05:46.931Z,11.93
2023-04-23T06:08:13.697Z,11.20
2023-04-23T06:10:40.419Z,10.37
2023-04-23T06:13:07.802Z,10.43
2023-04-23T06:15:34.542Z,9.47
2023-04-23T06:18:01.288Z,9.10
2023-04-23T06:20:28.542Z,10.97
2023-04-23T06:22:55.696Z,11.53
2023-04-23T06:25:22.514Z,10.13
2023-04-23T06:27:51.972Z,9.87
2023-04-23T06:30:18.748Z,9.77
2023-04-23T06:32:46.309Z,10.10
2023-04-23T06:35:13.437Z,9.47
2023-04-23T06:37:40.268Z,8.47
2023-04-23T06:40:08.008Z,8.70
2023-04-23T06:42:35.107Z,9.30
2023-04-23T06:45:06.222Z,9.43
2023-04-23T06:47:33.719Z,9.80
2023-04-23T06:50:00.515Z,9.50
2023-04-23T06:52:27.741Z,10.60
2023-04-23T06:54:54.912Z,12.93
2023-04-23T06:57:22.046Z,12.10
2023-04-23T06:59:49.261Z,10.93
2023-04-23T07:02:16.032Z,12.10
2023-04-23T07:04:43.628Z,10.80
2023-04-23T07:07:13.141Z,11.07
2023-04-23T07:09:40.104Z,10.50
2023-04-23T07:12:07.397Z,12.43
2023-04-23T07:14:34.173Z,9.60
2023-04-23T07:17:01.171Z,9.83
2023-04-23T07:19:28.317Z,9.63
2023-04-23T07:21:55.414Z,9.50
2023-04-23T07:24:22.197Z,8.73
2023-04-23T07:26:51.169Z,8.80
2023-04-23T07:29:17.958Z,8.80
2023-04-23T07:31:45.082Z,10.00
2023-04-23T07:34:12.112Z,8.87
2023-04-23T07:36:38.980Z,8.70
2023-04-23T07:39:06.658Z,9.10
2023-04-23T07:41:33.774Z,9.63
2023-04-23T07:44:01.066Z,10.03
2023-04-23T07:46:28.071Z,9.50
2023-04-23T07:48:55.599Z,9.90
2023-04-23T07:51:27.872Z,9.40
2023-04-23T07:53:54.685Z,6.80
2023-04-23T07:56:24.932Z,7.77
2023-04-23T07:58:53.915Z,6.97
2023-04-23T08:01:22.025Z,7.27
2023-04-23T08:03:48.994Z,6.80
2023-04-23T08:06:16.527Z,7.50
2023-04-23T08:08:43.282Z,6.33
2023-04-23T08:11:12.931Z,6.77
2023-04-23T08:13:39.882Z,7.80
2023-04-23T08:16:07.435Z,5.80
2023-04-23T08:18:35.928Z,7.37
2023-04-23T08:21:05.163Z,7.10
2023-04-23T08:23:32.390Z,5.27
2023-04-23T08:25:59.417Z,5.77
2023-04-23T08:28:28.005Z,5.30
2023-04-23T08:30:54.853Z,5.10
2023-04-23T08:33:21.899Z,5.00
2023-04-23T08:35:48.734Z,5.43
2023-04-23T08:38:15.654Z,3.87
2023-04-23T08:40:44.322Z,4.97
2023-04-23T08:43:16.641Z,4.70
2023-04-23T08:45:48.190Z,4.53
2023-04-23T08:48:16.119Z,4.10
2023-04-23T08:50:43.921Z,5.30
2023-04-23T08:53:10.952Z,5.03
2023-04-23T08:55:37.751Z,4.73
2023-04-23T08:58:06.842Z,4.47
2023-04-23T09:00:35.236Z,5.07
2023-04-23T09:03:02.808Z,4.67
2023-04-23T09:05:31.313Z,4.03
2023-04-23T09:07:59.703Z,4.40
2023-04-23T09:10:28.899Z,4.83
2023-04-23T09:12:55.710Z,4.10
2023-04-23T09:15:22.477Z,4.53
2023-04-23T09:17:50.324Z,4.27
2023-04-23T09:20:17.727Z,4.13
2023-04-23T09:22:52.684Z,5.23
2023-04-23T09:25:21.319Z,4.40
2023-04-23T09:27:52.103Z,4.40
2023-04-23T09:30:30.394Z,4.27
2023-04-23T09:32:58.619Z,4.20
2023-04-23T09:35:30.231Z,3.97
2023-04-23T09:37:59.221Z,6.03
2023-04-23T09:40:31.808Z,4.23
2023-04-23T09:42:58.660Z,4.33
2023-04-23T09:45:26.225Z,4.53
2023-04-23T09:47:56.699Z,4.70
2023-04-23T09:50:38.462Z,4.10
2023-04-23T09:53:06.997Z,4.90
2023-04-23T09:55:38.725Z,5.30
2023-04-23T09:58:08.152Z,4.87
2023-04-23T10:00:43.552Z,4.30
2023-04-23T10:03:14.045Z,4.03
2023-04-23T10:05:59.861Z,4.30
2023-04-23T10:08:31.019Z,4.10
2023-04-23T10:11:14.066Z,4.20
2023-04-23T10:13:49.599Z,4.10
2023-04-23T10:16:23.297Z,4.40
2023-04-23T10:19:01.794Z,4.60
2023-04-23T10:21:39.666Z,6.10
2023-04-23T10:24:15.692Z,5.80
2023-04-23T10:26:45.010Z,4.80
2023-04-23T10:29:18.454Z,4.03
2023-04-23T10:31:46.923Z,4.77
2023-04-23T10:34:18.655Z,4.57
2023-04-23T10:36:47.049Z,3.80
2023-04-23T10:39:20.860Z,5.37
2023-04-23T10:41:56.136Z,5.33
2023-04-23T10:44:45.088Z,4.97
2023-04-23T10:47:19.512Z,4.80
2023-04-23T10:49:49.892Z,6.47
2023-04-23T10:52:21.506Z,4.00
2023-04-23T10:55:00.002Z,4.67
2023-04-23T10:57:28.680Z,3.83
2023-04-23T10:59:59.162Z,3.90
2023-04-23T11:02:26.664Z,4.00
2023-04-23T11:04:58.932Z,4.63
2023-04-23T11:07:30.902Z,7.90
2023-04-23T11:10:02.232Z,5.20
2023-04-23T11:12:39.216Z,3.63
2023-04-23T11:15:18.515Z,5.57
2023-04-23T11:17:47.275Z,4.87
2023-04-23T11:20:22.575Z,5.90
2023-04-23T11:22:50.627Z,4.30
2023-04-23T11:25:27.168Z,4.13
2023-04-23T11:27:56.189Z,4.83
2023-04-23T11:30:35.152Z,4.53
2023-04-23T11:33:02.720Z,4.23
2023-04-23T11:35:31.972Z,3.97
2023-04-23T11:37:58.784Z,3.60
2023-04-23T11:40:25.817Z,3.57
2023-04-23T11:42:55.379Z,3.93
2023-04-23T11:45:29.393Z,3.93
2023-04-23T11:47:58.681Z,3.70
2023-04-23T11:50:33.782Z,3.30
2023-04-23T11:53:11.353Z,3.83
2023-04-23T11:55:38.876Z,2.87
2023-04-23T11:58:05.831Z,3.30
2023-04-23T12:00:35.661Z,3.67
2023-04-23T12:03:05.880Z,3.07
2023-04-23T12:05:40.531Z,3.80
2023-04-23T12:08:11.969Z,3.27
2023-04-23T12:10:52.006Z,2.63
2023-04-23T12:13:30.814Z,2.97
2023-04-23T12:15:59.675Z,3.20
2023-04-23T12:18:39.430Z,3.60
2023-04-23T12:21:11.121Z,3.03
2023-04-23T12:23:42.353Z,4.03
2023-04-23T12:26:13.794Z,4.37
2023-04-23T12:28:58.533Z,4.13
2023-04-23T12:31:30.191Z,3.20
2023-04-23T12:34:04.934Z,3.00
2023-04-23T12:36:33.070Z,4.10
2023-04-23T12:39:32.570Z,4.00
2023-04-23T12:42:08.183Z,5.40
2023-04-23T12:44:36.413Z,4.00
2023-04-23T12:47:07.409Z,3.30
2023-04-23T12:49:36.680Z,4.00
2023-04-23T12:52:04.908Z,3.77
2023-04-23T12:54:34.038Z,7.13
2023-04-23T12:57:04.035Z,3.30
2023-04-23T12:59:32.293Z,4.37
2023-04-23T13:02:02.547Z,5.10
2023-04-23T13:04:31.764Z,3.33
2023-04-23T13:06:58.832Z,4.17
2023-04-23T13:09:27.912Z,3.97
2023-04-23T13:11:55.625Z,3.50
2023-04-23T13:14:22.407Z,3.00
2023-04-23T13:16:49.513Z,3.37
2023-04-23T13:19:17.416Z,3.30
2023-04-23T13:21:45.375Z,2.67
2023-04-23T13:24:12.241Z,2.83
2023-04-23T13:26:39.727Z,3.37
2023-04-23T13:29:07.074Z,3.40
2023-04-23T13:31:34.928Z,2.43
2023-04-23T13:34:03.400Z,2.80
2023-04-23T13:36:30.685Z,2.20
2023-04-23T13:38:57.585Z,3.20
2023-04-23T13:41:24.577Z,2.10
2023-04-23T13:43:51.533Z,3.17
2023-04-23T13:46:20.468Z,2.70
2023-04-23T13:48:47.393Z,3.60
2023-04-23T13:51:33.135Z,3.17
2023-04-23T13:54:02.216Z,3.10
2023-04-23T13:56:30.614Z,3.17
2023-04-23T13:59:18.188Z,3.47
2023-04-23T14:01:51.912Z,5.07
2023-04-23T14:04:19.097Z,3.40
2023-04-23T14:06:46.623Z,4.60
2023-04-23T14:09:14.689Z,4.20
2023-04-23T14:11:44.835Z,3.63
2023-04-23T14:14:14.064Z,3.63
2023-04-23T14:16:41.273Z,2.93
2023-04-23T14:19:11.110Z,3.40
2023-04-23T14:21:38.009Z,2.73
2023-04-23T14:24:22.674Z,2.83
2023-04-23T14:26:50.209Z,3.20
2023-04-23T14:29:23.064Z,3.50
2023-04-23T14:31:51.103Z,4.00
2023-04-23T14:34:18.203Z,3.17
2023-04-23T14:36:46.589Z,3.63
2023-04-23T14:39:13.332Z,4.20
2023-04-23T14:41:41.021Z,5.70
2023-04-23T14:44:08.337Z,3.63
2023-04-23T14:46:35.480Z,3.40
2023-04-23T14:49:05.589Z,3.63
2023-04-23T14:51:42.218Z,3.60
2023-04-23T14:54:09.318Z,4.73
2023-04-23T14:56:44.674Z,4.10
2023-04-23T14:59:12.426Z,3.13
2023-04-23T15:01:39.473Z,3.00
2023-04-23T15:04:06.862Z,2.50
2023-04-23T15:06:34.111Z,2.40
2023-04-23T15:09:00.856Z,2.83
2023-04-23T15:11:30.973Z,2.70
2023-04-23T15:14:16.306Z,3.17
2023-04-23T15:16:50.263Z,2.50
2023-04-23T15:19:20.429Z,2.97
2023-04-23T15:21:48.444Z,2.70
2023-04-23T15:24:16.138Z,2.63
2023-04-23T15:26:43.754Z,3.87
2023-04-23T15:29:10.751Z,3.40
2023-04-23T15:31:38.313Z,3.33
2023-04-23T15:34:08.442Z,3.10
2023-04-23T15:36:38.089Z,3.20
2023-04-23T15:39:06.527Z,3.90
2023-04-23T15:41:34.469Z,3.73
2023-04-23T15:44:02.372Z,3.60
2023-04-23T15:46:29.532Z,3.60
2023-04-23T15:48:56.299Z,4.30
2023-04-23T15:51:23.399Z,4.60
2023-04-23T15:53:51.538Z,3.50
2023-04-23T15:56:18.342Z,3.67
2023-04-23T15:58:45.564Z,4.20
2023-04-23T16:01:12.780Z,3.90
2023-04-23T16:03:40.371Z,5.13
2023-04-23T16:06:12.673Z,3.90
2023-04-23T16:08:39.842Z,3.80
2023-04-23T16:11:09.354Z,4.37
2023-04-23T16:13:36.314Z,4.20
2023-04-23T16:16:03.504Z,4.07
2023-04-23T16:18:32.235Z,4.10
2023-04-23T16:21:03.201Z,5.27
2023-04-23T16:23:29.929Z,6.30
2023-04-23T16:25:57.849Z,5.97
2023-04-23T16:28:24.723Z,5.90
2023-04-23T16:30:54.092Z,4.90
2023-04-23T16:33:22.562Z,4.93
2023-04-23T16:35:49.356Z,4.20
2023-04-23T16:38:18.782Z,4.50
2023-04-23T16:40:47.415Z,4.40
2023-04-23T16:43:14.389Z,3.67
2023-04-23T16:45:48.548Z,4.17
2023-04-23T16:48:17.224Z,3.67
2023-04-23T16:50:46.192Z,3.73
2023-04-23T16:53:33.412Z,3.70
2023-04-23T16:56:07.818Z,3.20
2023-04-23T16:58:40.024Z,4.40
2023-04-23T17:01:15.086Z,4.30
2023-04-23T17:03:43.606Z,3.93
2023-04-23T17:06:22.157Z,3.90
2023-04-23T17:08:50.907Z,4.07
2023-04-23T17:11:17.985Z,3.60
2023-04-23T17:13:49.401Z,4.47
2023-04-23T17:16:16.673Z,4.57
2023-04-23T17:18:45.024Z,4.07
2023-04-23T17:21:12.438Z,4.00
2023-04-23T17:23:41.097Z,4.10
2023-04-23T17:26:09.729Z,5.00
2023-04-23T17:28:36.661Z,4.40
2023-04-23T17:31:04.094Z,4.63
2023-04-23T17:33:31.981Z,4.53
2023-04-23T17:36:04.707Z,4.40
2023-04-23T17:38:32.212Z,4.23
2023-04-23T17:41:07.879Z,4.70
2023-04-23T17:43:38.722Z,4.37
2023-04-23T17:46:09.990Z,5.07
2023-04-23T17:48:37.403Z,5.03
2023-04-23T17:51:06.089Z,7.80
2023-04-23T17:53:33.352Z,4.80
2023-04-23T17:56:03.402Z,4.43
2023-04-23T17:58:31.341Z,4.40
2023-04-23T18:00:58.271Z,5.30
2023-04-23T18:03:29.048Z,4.97
2023-04-23T18:05:55.981Z,10.00
2023-04-23T18:08:22.939Z,34.17
2023-04-23T18:10:49.912Z,26.60
2023-04-23T18:13:17.111Z,7.40
2023-04-23T18:15:45.875Z,3.53
2023-04-23T18:18:12.701Z,4.23
2023-04-23T18:20:40.299Z,3.90
2023-04-23T18:23:08.040Z,3.80
2023-04-23T18:25:34.799Z,4.87
2023-04-23T18:28:02.433Z,4.30
2023-04-23T18:30:29.918Z,4.23
2023-04-23T18:33:13.398Z,3.57
2023-04-23T18:35:50.052Z,5.00
2023-04-23T18:38:41.967Z,4.43
2023-04-23T18:41:08.866Z,4.10
2023-04-23T18:43:40.772Z,3.50
2023-04-23T18:46:10.053Z,3.53
2023-04-23T18:49:00.154Z,4.10
2023-04-23T18:51:33.237Z,3.40
2023-04-23T18:54:02.516Z,3.87
2023-04-23T18:56:30.664Z,3.60
2023-04-23T18:59:02.076Z,3.43
2023-04-23T19:01:29.070Z,3.37
2023-04-23T19:04:01.610Z,3.50
2023-04-23T19:06:30.896Z,4.37
2023-04-23T19:08:58.643Z,3.60
2023-04-23T19:11:27.763Z,4.40
2023-04-23T19:13:54.471Z,4.97
2023-04-23T19:16:25.913Z,4.80
2023-04-23T19:18:52.803Z,5.27
2023-04-23T19:21:19.937Z,4.60
2023-04-23T19:23:47.422Z,4.77
2023-04-23T19:26:15.343Z,4.57
2023-04-23T19:28:42.167Z,4.80
2023-04-23T19:31:09.726Z,4.57
2023-04-23T19:33:37.641Z,5.00
2023-04-23T19:36:06.220Z,4.63
2023-04-23T19:38:34.980Z,3.83
2023-04-23T19:41:02.548Z,4.77
2023-04-23T19:43:32.453Z,4.13
2023-04-23T19:46:03.072Z,4.30
2023-04-23T19:48:32.099Z,4.30
2023-04-23T19:51:00.152Z,4.23
2023-04-23T19:53:28.407Z,5.47
2023-04-23T19:55:55.496Z,5.00
2023-04-23T19:58:23.864Z,5.53
2023-04-23T20:00:51.057Z,5.63
2023-04-23T20:03:19.088Z,5.00
2023-04-23T20:05:49.518Z,4.90
2023-04-23T20:08:25.867Z,4.73
2023-04-23T20:10:53.647Z,5.60
2023-04-23T20:13:20.767Z,5.23
2023-04-23T20:15:49.869Z,4.60
2023-04-23T20:18:17.745Z,4.80
2023-04-23T20:20:44.846Z,4.23
2023-04-23T20:23:12.068Z,5.67
2023-04-23T20:25:48.032Z,7.83
2023-04-23T20:28:15.338Z,4.77
2023-04-23T20:30:42.160Z,5.70
2023-04-23T20:33:10.867Z,7.07
2023-04-23T20:35:39.889Z,5.73
2023-04-23T20:38:09.551Z,4.90
2023-04-23T20:40:36.336Z,6.70
2023-04-23T20:43:05.945Z,5.80
2023-04-23T20:45:34.180Z,6.27
2023-04-23T20:48:02.618Z,5.90
2023-04-23T20:50:30.656Z,6.63
2023-04-23T20:52:59.335Z,6.10
2023-04-23T20:55:26.175Z,6.27
2023-04-23T20:57:52.931Z,6.33
2023-04-23T21:00:20.631Z,6.17
2023-04-23T21:02:47.953Z,6.07
2023-04-23T21:05:16.991Z,5.90
2023-04-23T21:07:44.456Z,6.20
2023-04-23T21:10:11.379Z,6.40
2023-04-23T21:12:38.371Z,6.50
2023-04-23T21:15:06.110Z,6.50
2023-04-23T21:17:32.888Z,7.03
2023-04-23T21:19:59.664Z,7.17
2023-04-23T21:22:26.372Z,6.93
2023-04-23T21:24:53.574Z,6.80
2023-04-23T21:27:21.801Z,7.80
2023-04-23T21:29:49.395Z,7.53
2023-04-23T21:32:16.483Z,8.00
2023-04-23T21:34:43.662Z,7.40
2023-04-23T21:37:10.684Z,7.50
2023-04-23T21:39:38.643Z,7.93
2023-04-23T21:42:06.037Z,7.10
2023-04-23T21:44:32.932Z,8.30
2023-04-23T21:46:59.828Z,7.93
2023-04-23T21:49:27.845Z,7.80
2023-04-23T21:51:55.111Z,8.63
2023-04-23T21:54:22.409Z,7.87
2023-04-23T21:56:49.561Z,8.00
2023-04-23T21:59:16.382Z,8.70
2023-04-23T22:01:46.066Z,9.10
2023-04-23T22:04:13.763Z,9.27
2023-04-23T22:06:40.658Z,10.03
2023-04-23T22:09:07.997Z,8.30
2023-04-23T22:11:35.167Z,8.17
2023-04-23T22:14:02.307Z,9.23
2023-04-23T22:16:29.388Z,9.10
2023-04-23T22:19:00.472Z,8.23
2023-04-23T22:21:28.349Z,9.68
2023-04-23T22:23:56.421Z,7.80
2023-04-23T22:26:23.191Z,7.80
2023-04-23T22:28:50.280Z,8.75
2023-04-23T22:31:17.763Z,10.05
2023-04-23T22:33:46.267Z,9.30
2023-04-23T22:36:14.012Z,9.48
2023-04-23T22:38:40.827Z,9.30
2023-04-23T22:41:08.166Z,9.47
2023-04-23T22:43:34.893Z,8.23
2023-04-23T22:46:02.130Z,9.02
2023-04-23T22:48:29.083Z,9.27
2023-04-23T22:50:59.257Z,10.10
2023-04-23T22:53:26.224Z,8.40
2023-04-23T22:55:53.223Z,9.90
2023-04-23T22:58:20.463Z,11.45
2023-04-23T23:00:47.275Z,11.17
2023-04-23T23:03:14.513Z,9.25
2023-04-23T23:05:41.736Z,10.50
2023-04-23T23:08:08.528Z,8.57
2023-04-23T23:10:35.752Z,10.15
2023-04-23T23:13:02.566Z,10.25
2023-04-23T23:15:29.860Z,9.48
2023-04-23T23:17:57.834Z,8.47
2023-04-23T23:20:25.331Z,10.37
2023-04-23T23:22:52.349Z,9.15
2023-04-23T23:25:19.732Z,10.55
2023-04-23T23:27:46.529Z,9.88
2023-04-23T23:30:15.805Z,9.97
2023-04-23T23:32:42.694Z,10.23
2023-04-23T23:35:09.854Z,10.02
2023-04-23T23:37:36.761Z,10.10
2023-04-23T23:40:05.733Z,12.07
2023-04-23T23:42:32.862Z,9.75
2023-04-23T23:45:00.004Z,11.50
2023-04-23T23:47:29.337Z,10.30
2023-04-23T23:49:56.196Z,12.55
2023-04-23T23:52:23.553Z,12.60
2023-04-23T23:54:51.334Z,11.35
2023-04-23T23:57:18.089Z,11.13
2023-04-23T23:59:45.490Z,11.50
